createdAt,value
2019-02-23T00:00:59.366Z,31.67
2019-02-23T00:04:07.556Z,39.47
2019-02-23T00:07:15.132Z,37.37
2019-02-23T00:10:21.719Z,35.33
2019-02-23T00:13:28.575Z,36.20
2019-02-23T00:16:35.902Z,35.70
2019-02-23T00:19:42.604Z,36.87
2019-02-23T00:22:49.377Z,37.53
2019-02-23T00:25:55.754Z,39.27
2019-02-23T00:29:02.224Z,34.70
2019-02-23T00:32:08.638Z,33.50
2019-02-23T00:35:15.383Z,36.70
2019-02-23T00:38:22.557Z,30.57
2019-02-23T00:41:29.066Z,36.03
2019-02-23T00:44:36.667Z,34.17
2019-02-23T00:47:43.426Z,30.17
2019-02-23T00:50:50.349Z,32.60
2019-02-23T00:53:56.768Z,35.70
2019-02-23T00:57:03.329Z,31.50
2019-02-23T01:00:11.747Z,33.77
2019-02-23T01:03:18.001Z,33.03
2019-02-23T01:06:24.634Z,34.57
2019-02-23T01:09:31.058Z,32.43
2019-02-23T01:12:43.152Z,37.50
2019-02-23T01:15:49.507Z,30.63
2019-02-23T01:18:56.030Z,32.83
2019-02-23T01:22:02.454Z,33.80
2019-02-23T01:25:09.678Z,31.50
2019-02-23T01:28:16.312Z,34.83
2019-02-23T01:31:22.689Z,30.20
2019-02-23T01:34:29.547Z,30.90
2019-02-23T01:37:36.373Z,33.30
2019-02-23T01:40:43.572Z,31.03
2019-02-23T01:43:50.383Z,30.17
2019-02-23T01:46:56.928Z,26.70
2019-02-23T01:50:03.855Z,32.00
2019-02-23T01:53:10.162Z,28.30
2019-02-23T01:56:17.075Z,29.27
2019-02-23T01:59:23.974Z,34.97
2019-02-23T02:02:30.456Z,32.20
2019-02-23T02:05:37.375Z,31.80
2019-02-23T02:08:43.899Z,34.60
2019-02-23T02:11:51.320Z,33.33
2019-02-23T02:14:58.034Z,31.90
2019-02-23T02:18:04.553Z,30.87
2019-02-23T02:21:12.417Z,31.83
2019-02-23T02:24:18.885Z,31.80
2019-02-23T02:27:25.499Z,32.07
2019-02-23T02:30:32.099Z,34.47
2019-02-23T02:34:04.572Z,30.87
2019-02-23T02:37:10.997Z,28.10
2019-02-23T02:40:17.404Z,34.80
2019-02-23T02:43:23.882Z,31.03
2019-02-23T02:46:30.332Z,29.30
2019-02-23T02:49:36.793Z,32.47
2019-02-23T02:52:43.506Z,31.07
2019-02-23T02:55:49.663Z,30.90
2019-02-23T02:58:56.204Z,29.37
2019-02-23T03:02:02.773Z,31.43
2019-02-23T03:05:10.563Z,34.87
2019-02-23T03:08:17.245Z,34.63
2019-02-23T03:11:24.349Z,29.87
2019-02-23T03:14:31.147Z,35.33
2019-02-23T03:17:37.401Z,33.80
2019-02-23T03:20:43.897Z,35.23
2019-02-23T03:23:50.541Z,35.00
2019-02-23T03:26:58.701Z,36.10
2019-02-23T03:30:06.114Z,36.43
2019-02-23T03:33:12.770Z,33.87
2019-02-23T03:36:19.912Z,34.07
2019-02-23T03:39:26.582Z,44.73
2019-02-23T03:42:33.357Z,40.57
2019-02-23T03:45:39.983Z,39.03
2019-02-23T03:48:46.395Z,40.13
2019-02-23T03:51:52.772Z,43.03
2019-02-23T03:54:59.751Z,39.67
2019-02-23T03:58:06.436Z,35.03
2019-02-23T04:01:13.213Z,37.10
2019-02-23T04:04:20.137Z,36.07
2019-02-23T04:07:26.510Z,36.87
2019-02-23T04:10:33.459Z,38.00
2019-02-23T04:13:40.197Z,38.43
2019-02-23T04:16:46.699Z,37.10
2019-02-23T04:19:53.601Z,38.90
2019-02-23T04:23:00.059Z,36.47
2019-02-23T04:26:06.554Z,32.83
2019-02-23T04:29:13.149Z,36.27
2019-02-23T04:32:20.138Z,35.50
2019-02-23T04:35:26.864Z,32.10
2019-02-23T04:38:33.322Z,36.27
2019-02-23T04:41:40.179Z,36.33
2019-02-23T04:44:46.745Z,34.07
2019-02-23T04:47:53.281Z,34.10
2019-02-23T04:51:00.399Z,33.07
2019-02-23T04:54:07.247Z,33.47
2019-02-23T04:57:14.358Z,33.93
2019-02-23T05:00:21.062Z,37.37
2019-02-23T05:03:27.894Z,38.63
2019-02-23T05:06:35.017Z,39.40
2019-02-23T05:09:41.623Z,36.63
2019-02-23T05:12:48.394Z,31.97
2019-02-23T05:15:55.063Z,32.17
2019-02-23T05:19:01.447Z,32.90
2019-02-23T05:22:08.389Z,30.13
2019-02-23T05:25:15.117Z,35.63
2019-02-23T05:28:21.711Z,32.97
2019-02-23T05:31:29.307Z,38.37
2019-02-23T05:34:35.949Z,35.77
2019-02-23T05:37:42.223Z,37.87
2019-02-23T05:40:48.868Z,30.37
2019-02-23T05:43:55.480Z,31.33
2019-02-23T05:47:02.270Z,32.93
2019-02-23T05:50:09.183Z,39.37
2019-02-23T05:53:15.975Z,37.37
2019-02-23T05:56:22.410Z,34.63
2019-02-23T05:59:29.251Z,37.40
2019-02-23T06:02:35.958Z,35.27
2019-02-23T06:05:42.746Z,37.40
2019-02-23T06:08:49.916Z,41.70
2019-02-23T06:11:56.802Z,41.23
2019-02-23T06:15:03.881Z,37.27
2019-02-23T06:18:10.857Z,34.50
2019-02-23T06:21:17.346Z,33.90
2019-02-23T06:24:23.773Z,36.60
2019-02-23T06:27:30.243Z,33.33
2019-02-23T06:30:36.700Z,32.80
2019-02-23T06:33:45.635Z,36.27
2019-02-23T06:36:52.189Z,40.43
2019-02-23T06:39:59.047Z,37.30
2019-02-23T06:43:06.123Z,35.63
2019-02-23T06:46:13.712Z,29.30
2019-02-23T06:49:20.750Z,29.07
2019-02-23T06:52:27.430Z,42.43
2019-02-23T06:55:36.511Z,36.77
2019-02-23T06:58:43.391Z,34.90
2019-02-23T07:01:51.539Z,33.03
2019-02-23T07:04:59.465Z,34.63
2019-02-23T07:08:06.423Z,35.33
2019-02-23T07:11:13.125Z,35.67
2019-02-23T07:14:19.785Z,34.63
2019-02-23T07:17:26.627Z,35.93
2019-02-23T07:20:43.888Z,36.80
2019-02-23T07:23:43.068Z,32.43
2019-02-23T07:26:50.866Z,34.17
2019-02-23T07:29:58.204Z,37.07
2019-02-23T07:33:08.321Z,47.07
2019-02-23T07:36:14.933Z,41.67
2019-02-23T07:39:21.497Z,34.30
2019-02-23T07:42:29.022Z,32.53
2019-02-23T07:45:35.599Z,33.63
2019-02-23T07:48:42.319Z,31.23
2019-02-23T07:51:49.144Z,33.47
2019-02-23T07:54:56.190Z,34.07
2019-02-23T07:58:03.088Z,34.67
2019-02-23T08:01:10.118Z,38.47
2019-02-23T08:04:16.730Z,32.93
2019-02-23T08:07:23.424Z,40.43
2019-02-23T08:10:30.032Z,37.47
2019-02-23T08:13:36.820Z,38.00
2019-02-23T08:16:43.557Z,34.50
2019-02-23T08:19:50.044Z,31.30
2019-02-23T08:22:56.241Z,29.07
2019-02-23T08:26:03.230Z,21.53
2019-02-23T08:29:09.689Z,31.67
2019-02-23T08:32:16.506Z,30.40
2019-02-23T08:35:23.482Z,33.37
2019-02-23T08:38:30.319Z,35.20
2019-02-23T08:41:39.244Z,27.63
2019-02-23T08:44:46.210Z,32.20
2019-02-23T08:47:53.032Z,27.17
2019-02-23T08:50:59.364Z,23.23
2019-02-23T08:54:06.711Z,26.47
2019-02-23T08:57:13.148Z,26.80
2019-02-23T09:00:20.083Z,25.47
2019-02-23T09:03:26.793Z,24.43
2019-02-23T09:06:34.785Z,25.93
2019-02-23T09:09:41.470Z,29.40
2019-02-23T09:12:48.735Z,28.23
2019-02-23T09:15:55.218Z,27.37
2019-02-23T09:19:01.861Z,24.43
2019-02-23T09:22:08.508Z,25.40
2019-02-23T09:25:15.508Z,28.70
2019-02-23T09:28:22.423Z,25.63
2019-02-23T09:31:30.495Z,23.83
2019-02-23T09:34:37.689Z,24.03
2019-02-23T09:37:44.322Z,20.70
2019-02-23T09:40:51.806Z,18.30
2019-02-23T09:44:00.894Z,22.50
2019-02-23T09:47:07.614Z,22.07
2019-02-23T09:50:14.548Z,15.57
2019-02-23T09:53:22.437Z,21.30
2019-02-23T09:56:28.993Z,17.30
2019-02-23T09:59:35.628Z,18.70
2019-02-23T10:02:42.635Z,19.67
2019-02-23T10:05:49.343Z,29.93
2019-02-23T10:08:56.311Z,14.83
2019-02-23T10:12:03.479Z,14.87
2019-02-23T10:15:10.231Z,17.30
2019-02-23T10:18:17.105Z,11.97
2019-02-23T10:21:23.712Z,12.53
2019-02-23T10:24:30.816Z,12.23
2019-02-23T10:27:37.811Z,9.97
2019-02-23T10:30:44.013Z,16.20
2019-02-23T10:33:51.033Z,10.50
2019-02-23T10:36:58.021Z,8.40
2019-02-23T10:40:04.923Z,11.57
2019-02-23T10:43:11.656Z,14.60
2019-02-23T10:46:18.022Z,13.63
2019-02-23T10:49:24.777Z,10.57
2019-02-23T10:52:33.672Z,14.20
2019-02-23T10:55:40.896Z,12.20
2019-02-23T10:58:49.450Z,14.97
2019-02-23T11:01:58.224Z,11.83
2019-02-23T11:05:05.859Z,10.83
2019-02-23T11:08:12.786Z,12.20
2019-02-23T11:11:19.607Z,9.33
2019-02-23T11:14:26.336Z,12.27
2019-02-23T11:17:34.940Z,9.83
2019-02-23T11:20:42.078Z,14.33
2019-02-23T11:23:48.700Z,21.03
2019-02-23T11:26:55.402Z,30.87
2019-02-23T11:30:02.168Z,17.80
2019-02-23T11:33:08.818Z,10.93
2019-02-23T11:36:18.323Z,11.87
2019-02-23T11:39:26.183Z,10.47
2019-02-23T11:42:32.649Z,12.40
2019-02-23T11:45:39.397Z,25.00
2019-02-23T11:48:47.310Z,12.10
2019-02-23T11:51:54.055Z,14.43
2019-02-23T11:55:00.753Z,14.17
2019-02-23T11:58:07.435Z,9.20
2019-02-23T12:01:14.506Z,6.17
2019-02-23T12:04:21.333Z,7.67
2019-02-23T12:07:27.813Z,9.07
2019-02-23T12:10:34.375Z,10.20
2019-02-23T12:13:42.382Z,6.07
2019-02-23T12:16:49.782Z,6.33
2019-02-23T12:19:57.051Z,7.77
2019-02-23T12:23:03.694Z,6.90
2019-02-23T12:26:11.174Z,5.50
2019-02-23T12:29:17.971Z,4.97
2019-02-23T12:32:25.694Z,30.20
2019-02-23T12:35:32.943Z,6.40
2019-02-23T12:38:39.877Z,3.67
2019-02-23T12:41:46.783Z,6.70
2019-02-23T12:44:53.339Z,6.70
2019-02-23T12:48:00.601Z,5.20
2019-02-23T12:51:10.416Z,4.50
2019-02-23T12:54:17.279Z,3.30
2019-02-23T12:57:24.203Z,3.50
2019-02-23T13:00:31.184Z,5.60
2019-02-23T13:03:37.816Z,3.90
2019-02-23T13:06:44.385Z,3.73
2019-02-23T13:09:53.234Z,3.60
2019-02-23T13:13:37.019Z,3.23
2019-02-23T13:17:26.581Z,2.90
2019-02-23T13:20:57.839Z,3.00
2019-02-23T13:24:41.264Z,2.80
2019-02-23T13:28:27.864Z,4.60
2019-02-23T13:32:11.704Z,2.57
2019-02-23T13:35:54.512Z,2.90
2019-02-23T13:39:30.596Z,3.60
2019-02-23T13:43:12.882Z,3.03
2019-02-23T13:46:43.498Z,4.30
2019-02-23T13:50:36.011Z,2.97
2019-02-23T13:54:38.841Z,2.80
2019-02-23T13:58:13.676Z,3.33
2019-02-23T14:01:37.643Z,2.80
2019-02-23T14:05:10.607Z,6.73
2019-02-23T14:08:49.493Z,5.13
2019-02-23T14:12:18.564Z,10.90
2019-02-23T14:15:50.585Z,4.47
2019-02-23T14:19:17.219Z,5.17
2019-02-23T14:23:03.260Z,5.13
2019-02-23T14:27:00.335Z,6.90
2019-02-23T14:30:44.732Z,17.63
2019-02-23T14:34:37.807Z,6.50
2019-02-23T14:38:40.184Z,6.13
2019-02-23T14:42:11.224Z,6.83
2019-02-23T14:45:55.980Z,6.50
2019-02-23T14:49:37.994Z,5.73
2019-02-23T14:53:34.224Z,5.87
2019-02-23T14:57:30.807Z,5.77
2019-02-23T15:01:27.543Z,13.80
2019-02-23T15:05:10.113Z,7.30
2019-02-23T15:08:45.422Z,10.67
2019-02-23T15:12:26.360Z,17.97
2019-02-23T15:15:54.668Z,11.80
2019-02-23T15:19:45.302Z,11.10
2019-02-23T15:23:16.348Z,18.17
2019-02-23T15:26:54.595Z,23.57
2019-02-23T15:30:34.139Z,11.40
2019-02-23T15:34:40.030Z,8.23
2019-02-23T15:38:37.859Z,10.23
2019-02-23T15:42:26.037Z,9.47
2019-02-23T15:46:12.959Z,6.63
2019-02-23T15:49:36.360Z,8.60
2019-02-23T15:52:43.319Z,6.20
2019-02-23T15:55:50.144Z,4.30
2019-02-23T15:58:56.929Z,4.50
2019-02-23T16:02:03.477Z,5.03
2019-02-23T16:05:10.268Z,5.27
2019-02-23T16:08:17.496Z,4.13
2019-02-23T16:11:24.612Z,3.57
2019-02-23T16:14:31.384Z,5.87
2019-02-23T16:17:38.088Z,3.47
2019-02-23T16:20:44.758Z,3.23
2019-02-23T16:23:51.709Z,4.57
2019-02-23T16:26:58.976Z,5.63
2019-02-23T16:30:06.995Z,6.63
2019-02-23T16:33:13.764Z,3.77
2019-02-23T16:36:20.651Z,7.10
2019-02-23T16:39:29.952Z,3.43
2019-02-23T16:42:36.401Z,3.93
2019-02-23T16:45:43.085Z,5.63
2019-02-23T16:48:51.233Z,3.97
2019-02-23T16:51:58.268Z,5.17
2019-02-23T16:55:05.062Z,4.53
2019-02-23T16:58:15.429Z,8.40
2019-02-23T17:01:27.519Z,10.13
2019-02-23T17:04:34.199Z,9.80
2019-02-23T17:07:41.123Z,3.90
2019-02-23T17:10:48.639Z,6.50
2019-02-23T17:13:56.920Z,6.63
2019-02-23T17:17:05.046Z,6.63
2019-02-23T17:20:12.025Z,4.50
2019-02-23T17:23:19.517Z,7.63
2019-02-23T17:26:26.045Z,6.27
2019-02-23T17:29:35.307Z,11.07
2019-02-23T17:32:42.516Z,35.37
2019-02-23T17:35:49.381Z,23.77
2019-02-23T17:38:57.468Z,53.40
2019-02-23T17:42:04.218Z,50.57
2019-02-23T17:45:11.284Z,26.13
2019-02-23T17:48:18.987Z,16.23
2019-02-23T17:51:26.483Z,7.27
2019-02-23T17:54:33.499Z,9.50
2019-02-23T17:57:40.381Z,9.80
2019-02-23T18:00:46.941Z,11.87
2019-02-23T18:03:55.037Z,9.10
2019-02-23T18:07:02.116Z,11.80
2019-02-23T18:10:08.916Z,9.23
2019-02-23T18:13:16.153Z,17.70
2019-02-23T18:16:23.156Z,5.93
2019-02-23T18:19:30.017Z,8.20
2019-02-23T18:22:38.521Z,6.93
2019-02-23T18:25:46.642Z,11.57
2019-02-23T18:28:53.029Z,5.57
2019-02-23T18:31:59.723Z,10.57
2019-02-23T18:35:08.730Z,7.97
2019-02-23T18:38:15.792Z,13.53
2019-02-23T18:41:22.868Z,10.33
2019-02-23T18:44:30.324Z,9.10
2019-02-23T18:47:37.239Z,11.60
2019-02-23T18:50:44.127Z,13.53
2019-02-23T18:53:51.386Z,57.63
2019-02-23T18:56:58.273Z,63.77
2019-02-23T19:00:05.389Z,63.70
2019-02-23T19:03:13.136Z,41.30
2019-02-23T19:06:19.761Z,36.20
2019-02-23T19:09:26.971Z,30.40
2019-02-23T19:12:33.527Z,25.80
2019-02-23T19:15:40.551Z,19.77
2019-02-23T19:18:48.831Z,22.47
2019-02-23T19:21:55.298Z,14.83
2019-02-23T19:25:02.808Z,13.57
2019-02-23T19:28:10.211Z,12.37
2019-02-23T19:31:17.188Z,12.97
2019-02-23T19:34:24.338Z,15.73
2019-02-23T19:37:32.592Z,13.47
2019-02-23T19:40:39.848Z,14.80
2019-02-23T19:43:46.774Z,16.77
2019-02-23T19:47:00.444Z,13.87
2019-02-23T19:50:23.045Z,21.00
2019-02-23T19:53:30.682Z,15.57
2019-02-23T19:56:46.443Z,20.80
2019-02-23T19:59:49.481Z,14.20
2019-02-23T20:02:55.992Z,11.73
2019-02-23T20:06:03.091Z,14.30
2019-02-23T20:09:10.132Z,13.90
2019-02-23T20:12:18.345Z,18.00
2019-02-23T20:15:25.247Z,60.73
2019-02-23T20:18:32.029Z,38.90
2019-02-23T20:21:42.037Z,32.33
2019-02-23T20:24:49.024Z,29.20
2019-02-23T20:27:56.379Z,23.13
2019-02-23T20:31:03.315Z,18.47
2019-02-23T20:34:09.841Z,17.80
2019-02-23T20:37:16.453Z,21.30
2019-02-23T20:40:23.661Z,23.50
2019-02-23T20:43:30.658Z,15.20
2019-02-23T20:46:37.974Z,19.43
2019-02-23T20:49:45.408Z,18.63
2019-02-23T20:52:54.071Z,13.13
2019-02-23T20:56:00.657Z,16.93
2019-02-23T20:59:08.593Z,11.87
2019-02-23T21:02:15.807Z,15.30
2019-02-23T21:05:22.593Z,19.40
2019-02-23T21:08:29.518Z,13.47
2019-02-23T21:11:37.354Z,15.13
2019-02-23T21:14:43.729Z,16.47
2019-02-23T21:17:52.027Z,11.67
2019-02-23T21:21:02.413Z,15.97
2019-02-23T21:24:09.328Z,11.47
2019-02-23T21:27:17.087Z,14.20
2019-02-23T21:30:24.179Z,14.50
2019-02-23T21:33:31.958Z,12.27
2019-02-23T21:36:38.905Z,13.10
2019-02-23T21:39:45.913Z,10.50
2019-02-23T21:42:52.598Z,16.10
2019-02-23T21:45:59.255Z,20.17
2019-02-23T21:49:06.581Z,14.13
2019-02-23T21:52:13.356Z,12.80
2019-02-23T21:55:21.581Z,14.50
2019-02-23T21:58:29.137Z,11.87
2019-02-23T22:01:36.565Z,10.50
2019-02-23T22:04:43.829Z,13.60
2019-02-23T22:07:50.766Z,13.77
2019-02-23T22:10:57.193Z,9.70
2019-02-23T22:14:04.512Z,9.50
2019-02-23T22:17:11.707Z,15.93
2019-02-23T22:20:18.101Z,13.27
2019-02-23T22:23:25.277Z,19.07
2019-02-23T22:26:32.544Z,22.83
2019-02-23T22:29:39.749Z,15.97
2019-02-23T22:32:46.581Z,23.03
2019-02-23T22:35:53.408Z,13.27
2019-02-23T22:38:59.922Z,23.40
2019-02-23T22:42:06.736Z,16.53
2019-02-23T22:45:13.499Z,18.00
2019-02-23T22:48:20.650Z,22.43
2019-02-23T22:51:27.960Z,14.70
2019-02-23T22:54:35.469Z,22.27
2019-02-23T22:57:42.283Z,19.17
2019-02-23T23:00:54.480Z,18.43
2019-02-23T23:04:02.272Z,14.30
2019-02-23T23:07:11.422Z,17.03
2019-02-23T23:10:18.297Z,21.50
2019-02-23T23:13:25.280Z,19.80
2019-02-23T23:16:31.937Z,16.53
2019-02-23T23:19:38.643Z,17.73
2019-02-23T23:22:45.100Z,15.33
2019-02-23T23:25:52.240Z,16.60
2019-02-23T23:28:59.118Z,25.57
2019-02-23T23:32:06.448Z,20.50
2019-02-23T23:35:13.028Z,15.57
2019-02-23T23:38:19.481Z,23.27
2019-02-23T23:41:27.151Z,18.60
2019-02-23T23:44:33.348Z,14.77
2019-02-23T23:47:40.187Z,11.80
2019-02-23T23:50:47.602Z,12.77
2019-02-23T23:53:54.546Z,9.83
2019-02-23T23:57:01.796Z,14.97
